Time;durP1;ratioP1;P1;durP2;ratioP2;P2;SDS_P1;SDS_P2;PMS_P1;PMS_P2;Temp;Humidity;BMP_temperature;BMP_pressure;BME280_temperature;BME280_humidity;BME280_pressure;Samples;Min_cycle;Max_cycle;Signal;HPM_P1;HPM_P2
2020/03/14 00:01:11;;;;;;;8.3;3.7;;;;;;;1.66;73.47363;941.8894;;;;
2020/03/14 00:03:36;;;;;;;13.7;3.8;;;;;;;1.51;74.01855;941.8859;;;;
2020/03/14 00:06:02;;;;;;;10.1;3.7;;;;;;;1.58;73.79492;941.9598;;;;
2020/03/14 00:08:27;;;;;;;9.4;3.4;;;;;;;1.57;73.72656;941.947;;;;
2020/03/14 00:10:52;;;;;;;7.3;3.1;;;;;;;1.48;73.91211;941.9228;;;;
2020/03/14 00:13:17;;;;;;;7.3;3.3;;;;;;;1.47;73.99023;941.8864;;;;
2020/03/14 00:15:42;;;;;;;7.1;3.2;;;;;;;1.25;74.59863;941.8736;;;;
2020/03/14 00:18:07;;;;;;;6.8;2.9;;;;;;;1.24;74.86328;941.843;;;;
2020/03/14 00:20:32;;;;;;;8.9;2.8;;;;;;;1.27;75.01465;941.8831;;;;
2020/03/14 00:22:57;;;;;;;5.7;2.5;;;;;;;1.31;74.59863;941.9409;;;;
2020/03/14 00:25:22;;;;;;;4.9;2.4;;;;;;;1.42;74.43848;941.9631;;;;
2020/03/14 00:27:47;;;;;;;6.9;3.3;;;;;;;1.57;73.86035;941.9719;;;;
2020/03/14 00:30:13;;;;;;;9;3.8;;;;;;;1.68;73.40918;941.9053;;;;
2020/03/14 00:32:38;;;;;;;7.8;3.2;;;;;;;1.7;73.05469;941.8809;;;;
2020/03/14 00:35:03;;;;;;;8.6;3.1;;;;;;;1.71;72.96875;941.9438;;;;
2020/03/14 00:37:28;;;;;;;7.6;3.1;;;;;;;1.75;72.66113;941.9289;;;;
2020/03/14 00:39:53;;;;;;;7.8;2.8;;;;;;;1.71;72.81055;941.9553;;;;
2020/03/14 00:42:18;;;;;;;7.6;2.8;;;;;;;1.54;73.30762;941.8739;;;;
2020/03/14 00:44:43;;;;;;;5.6;2.7;;;;;;;1.54;73.35254;941.8847;;;;
2020/03/14 00:47:08;;;;;;;4.4;2.6;;;;;;;1.41;73.54102;941.8321;;;;
2020/03/14 00:49:34;;;;;;;5.5;2.3;;;;;;;1.19;74.47559;941.8577;;;;
2020/03/14 00:51:59;;;;;;;5.6;2.3;;;;;;;1.29;74.38184;941.8521;;;;
2020/03/14 00:54:24;;;;;;;3.9;2;;;;;;;1.32;73.97461;941.8152;;;;
2020/03/14 00:56:49;;;;;;;6;2.1;;;;;;;1.18;74.66602;941.6981;;;;
2020/03/14 00:59:14;;;;;;;6;2;;;;;;;1.11;75.1543;941.7629;;;;
2020/03/14 01:01:40;;;;;;;3.8;2;;;;;;;1.29;74.37012;941.758;;;;
2020/03/14 01:04:05;;;;;;;5.9;2.3;;;;;;;1.34;74.16699;941.6891;;;;
2020/03/14 01:06:30;;;;;;;8.2;2.6;;;;;;;1.29;74.47266;941.7274;;;;
2020/03/14 01:08:55;;;;;;;4.3;2.3;;;;;;;1.3;74.5957;941.7668;;;;
2020/03/14 01:11:20;;;;;;;5.6;2.6;;;;;;;1.29;74.52832;941.7054;;;;
2020/03/14 01:13:45;;;;;;;5.9;2.8;;;;;;;1.31;74.54297;941.7081;;;;
2020/03/14 01:16:10;;;;;;;5.6;3;;;;;;;1.37;74.33984;941.6832;;;;
2020/03/14 01:18:36;;;;;;;6.9;3.1;;;;;;;1.46;73.875;941.7068;;;;
2020/03/14 01:21:01;;;;;;;5;2.8;;;;;;;1.51;73.60547;941.653;;;;
2020/03/14 01:23:31;;;;;;;9.2;3.2;;;;;;;1.5;73.48047;941.7065;;;;
2020/03/14 01:26:02;;;;;;;4.5;2.4;;;;;;;1.54;73.44238;941.6565;;;;
2020/03/14 01:28:18;;;;;;;14.5;3.3;;;;;;;1.52;73.62695;941.6454;;;;
2020/03/14 01:30:41;;;;;;;5.1;2.5;;;;;;;1.52;73.42578;941.5748;;;;
2020/03/14 01:33:06;;;;;;;4.4;2;;;;;;;1.25;74.14063;941.4994;;;;
2020/03/14 01:35:32;;;;;;;6.6;2.3;;;;;;;1;75.24609;941.5106;;;;
2020/03/14 01:37:57;;;;;;;4.6;2.1;;;;;;;1.02;75.30664;941.4503;;;;
2020/03/14 01:40:22;;;;;;;9.9;2.2;;;;;;;0.94;75.48242;941.4137;;;;
2020/03/14 01:42:47;;;;;;;5.8;2.3;;;;;;;0.95;75.62891;941.3696;;;;
2020/03/14 01:45:12;;;;;;;4.5;2.1;;;;;;;0.71;76.39063;941.373;;;;
2020/03/14 01:47:37;;;;;;;7.7;2.2;;;;;;;0.94;75.75;941.2773;;;;
2020/03/14 01:50:02;;;;;;;7.4;2.4;;;;;;;1.05;75.47949;941.3095;;;;
2020/03/14 01:52:27;;;;;;;12.4;2.6;;;;;;;1.03;74.85059;941.2648;;;;
2020/03/14 01:54:52;;;;;;;6.8;2;;;;;;;1;75.4043;941.2141;;;;
2020/03/14 01:57:18;;;;;;;9.5;2.2;;;;;;;0.95;75.44824;941.0706;;;;
2020/03/14 01:59:43;;;;;;;7.5;2.3;;;;;;;0.8;75.99219;941.1342;;;;
2020/03/14 02:02:08;;;;;;;5.9;2.3;;;;;;;0.61;76.86133;941.1061;;;;
2020/03/14 02:04:33;;;;;;;10.9;2.2;;;;;;;0.48;77.54102;941.1131;;;;
2020/03/14 02:06:58;;;;;;;10.3;2.1;;;;;;;0.54;77.38379;941.1028;;;;
2020/03/14 02:09:23;;;;;;;5;2.1;;;;;;;0.57;77.29004;941.0793;;;;
2020/03/14 02:11:48;;;;;;;5.8;2.1;;;;;;;0.53;77.32813;941.079;;;;
2020/03/14 02:14:13;;;;;;;8.2;2.2;;;;;;;0.52;77.50293;941.0125;;;;
2020/03/14 02:16:38;;;;;;;6.1;2.3;;;;;;;0.36;78.15527;941.0279;;;;
2020/03/14 02:19:03;;;;;;;5.2;2;;;;;;;0.33;78.29297;940.9969;;;;
2020/03/14 02:21:29;;;;;;;6.7;2;;;;;;;0.29;78.40918;941.0239;;;;
2020/03/14 02:23:54;;;;;;;4.5;2;;;;;;;0.4;77.83887;941.0269;;;;
2020/03/14 02:26:19;;;;;;;5;2;;;;;;;0.51;77.5;941.008;;;;
2020/03/14 02:28:44;;;;;;;3.7;1.8;;;;;;;0.55;77.15137;940.9991;;;;
2020/03/14 02:31:09;;;;;;;7.2;2.3;;;;;;;0.64;76.9668;940.942;;;;
2020/03/14 02:33:34;;;;;;;10.1;2.4;;;;;;;0.72;76.49121;940.9492;;;;
2020/03/14 02:35:59;;;;;;;8.8;2.4;;;;;;;0.85;76.03516;940.9341;;;;
2020/03/14 02:38:24;;;;;;;7;2.3;;;;;;;0.93;75.75781;940.9097;;;;
2020/03/14 02:40:50;;;;;;;6.1;2.1;;;;;;;0.99;75.42285;940.8851;;;;
2020/03/14 02:43:15;;;;;;;3.5;2;;;;;;;1.01;75.20313;940.853;;;;
2020/03/14 02:45:40;;;;;;;5.4;2.2;;;;;;;0.96;75.24902;940.8438;;;;
2020/03/14 02:48:05;;;;;;;9.7;2.3;;;;;;;0.89;75.65137;940.7659;;;;
2020/03/14 02:50:30;;;;;;;6.2;2.3;;;;;;;0.84;75.77539;940.7744;;;;
2020/03/14 02:52:55;;;;;;;6.2;2.2;;;;;;;0.82;76.11816;940.757;;;;
2020/03/14 02:55:21;;;;;;;6.9;2.3;;;;;;;0.89;76.00879;940.759;;;;
2020/03/14 02:57:46;;;;;;;6.8;2.2;;;;;;;0.85;75.73438;940.714;;;;
2020/03/14 03:00:11;;;;;;;5.2;2.1;;;;;;;0.8;75.95898;940.7127;;;;
2020/03/14 03:02:56;;;;;;;5;2.2;;;;;;;0.76;75.97266;940.6731;;;;
2020/03/14 03:05:21;;;;;;;10.7;2.3;;;;;;;0.71;76.2998;940.6637;;;;
2020/03/14 03:07:46;;;;;;;4.1;1.9;;;;;;;0.65;76.55566;940.6409;;;;
2020/03/14 03:10:11;;;;;;;4.7;2;;;;;;;0.57;76.89941;940.6484;;;;
2020/03/14 03:12:36;;;;;;;5.6;1.8;;;;;;;0.63;76.70898;940.6612;;;;
2020/03/14 03:15:02;;;;;;;3.3;1.7;;;;;;;0.57;76.82031;940.6945;;;;
2020/03/14 03:17:27;;;;;;;5.1;2.1;;;;;;;0.51;76.69824;940.6801;;;;
2020/03/14 03:19:52;;;;;;;5.9;2;;;;;;;0.42;76.99414;940.6356;;;;
2020/03/14 03:22:17;;;;;;;3.7;1.9;;;;;;;0.35;77.34961;940.6599;;;;
2020/03/14 03:24:42;;;;;;;3.3;1.9;;;;;;;0.39;77.23438;940.715;;;;
2020/03/14 03:27:07;;;;;;;5.2;1.9;;;;;;;0.52;76.84473;940.7166;;;;
2020/03/14 03:29:32;;;;;;;4.7;2.2;;;;;;;0.52;76.91211;940.6945;;;;
2020/03/14 03:31:57;;;;;;;5.2;2.1;;;;;;;0.55;77.07324;940.7061;;;;
2020/03/14 03:34:22;;;;;;;4.8;2;;;;;;;0.62;76.7959;940.6535;;;;
2020/03/14 03:36:47;;;;;;;3.6;2;;;;;;;0.58;76.68945;940.6445;;;;
2020/03/14 03:39:12;;;;;;;5.4;2.3;;;;;;;0.48;77.3291;940.6206;;;;
2020/03/14 03:41:37;;;;;;;5.3;2.3;;;;;;;0.36;77.98828;940.6259;;;;
2020/03/14 03:44:03;;;;;;;4.3;2;;;;;;;0.48;78.03223;940.6644;;;;
2020/03/14 03:46:28;;;;;;;5.1;2.1;;;;;;;0.64;77.12305;940.6411;;;;
2020/03/14 03:48:53;;;;;;;5.1;2.2;;;;;;;0.76;76.57715;940.6702;;;;
2020/03/14 03:51:18;;;;;;;4.6;2;;;;;;;0.82;76.3418;940.7043;;;;
2020/03/14 03:53:43;;;;;;;5.9;2.3;;;;;;;0.9;75.88867;940.7039;;;;
2020/03/14 03:56:08;;;;;;;5.1;2.5;;;;;;;0.96;75.6084;940.6573;;;;
2020/03/14 03:58:35;;;;;;;4.4;2.6;;;;;;;0.83;76.0752;940.7127;;;;
2020/03/14 04:02:30;;;;;;;10.8;3.1;;;;;;;0.59;77.03809;940.6387;;;;
2020/03/14 04:04:55;;;;;;;7.1;2.8;;;;;;;0.68;76.89746;940.6975;;;;
2020/03/14 04:07:20;;;;;;;6.8;2.8;;;;;;;0.55;77.15332;940.7489;;;;
2020/03/14 04:09:45;;;;;;;7.6;2.6;;;;;;;0.52;77.59277;940.7183;;;;
2020/03/14 04:12:11;;;;;;;3.9;2;;;;;;;0.41;77.80664;940.6624;;;;
2020/03/14 04:14:36;;;;;;;5.7;2.3;;;;;;;0.37;77.9209;940.5338;;;;
2020/03/14 04:17:01;;;;;;;3.5;2;;;;;;;0.44;77.77832;940.5385;;;;
2020/03/14 04:19:26;;;;;;;4.8;2.7;;;;;;;0.59;77.27148;940.5413;;;;
2020/03/14 04:21:51;;;;;;;4.5;2.4;;;;;;;0.68;76.77246;940.546;;;;
2020/03/14 04:24:16;;;;;;;12.1;3;;;;;;;0.64;76.85742;940.4965;;;;
2020/03/14 04:26:41;;;;;;;7.6;2.8;;;;;;;0.65;76.73438;940.4829;;;;
2020/03/14 04:29:06;;;;;;;6.3;2.3;;;;;;;0.56;77.06348;940.4662;;;;
2020/03/14 04:31:31;;;;;;;4.6;2.2;;;;;;;0.58;77.10254;940.4564;;;;
2020/03/14 04:33:57;;;;;;;5;2.3;;;;;;;0.41;77.82715;940.507;;;;
2020/03/14 04:36:22;;;;;;;7.3;2.2;;;;;;;0.34;78.47363;940.5355;;;;
2020/03/14 04:38:47;;;;;;;6.6;2.9;;;;;;;0.44;78.48242;940.4932;;;;
2020/03/14 04:41:12;;;;;;;8.4;3.2;;;;;;;0.48;78.49902;940.5028;;;;
2020/03/14 04:43:37;;;;;;;8.2;3.4;;;;;;;0.52;78.27246;940.4211;;;;
2020/03/14 04:46:02;;;;;;;6.7;2.8;;;;;;;0.59;78.23242;940.4617;;;;
2020/03/14 04:48:27;;;;;;;6.4;3;;;;;;;0.54;78.17578;940.4433;;;;
2020/03/14 04:50:52;;;;;;;6.4;3.1;;;;;;;0.47;78.48535;940.4059;;;;
2020/03/14 04:53:18;;;;;;;5.4;3;;;;;;;0.65;78.11816;940.5048;;;;
2020/03/14 04:55:42;;;;;;;6.5;2.9;;;;;;;0.65;77.70508;940.4786;;;;
2020/03/14 04:58:08;;;;;;;6.2;2.9;;;;;;;0.76;77.17969;940.4367;;;;
2020/03/14 05:00:33;;;;;;;5.9;2.8;;;;;;;0.71;77.39258;940.4402;;;;
2020/03/14 05:02:58;;;;;;;8.5;3.4;;;;;;;0.59;77.64063;940.4632;;;;
2020/03/14 05:05:23;;;;;;;7.1;3.9;;;;;;;0.71;77.60547;940.4035;;;;
2020/03/14 05:07:48;;;;;;;8.9;3.9;;;;;;;0.69;77.43457;940.3358;;;;
2020/03/14 05:10:13;;;;;;;8.3;4.4;;;;;;;0.77;76.96973;940.3812;;;;
2020/03/14 05:12:38;;;;;;;7.4;3.7;;;;;;;0.85;77.0957;940.3823;;;;
2020/03/14 05:15:03;;;;;;;7.7;3.6;;;;;;;0.96;76.84766;940.3956;;;;
2020/03/14 05:17:28;;;;;;;7.2;3;;;;;;;1.07;76.23047;940.3298;;;;
2020/03/14 05:19:54;;;;;;;6.1;2.7;;;;;;;0.78;76.9707;940.2769;;;;
2020/03/14 05:22:19;;;;;;;5.6;2.5;;;;;;;0.71;77.21484;940.3345;;;;
2020/03/14 05:24:44;;;;;;;5.6;2.6;;;;;;;0.76;77.25586;940.3345;;;;
2020/03/14 05:27:10;;;;;;;8.5;2.6;;;;;;;0.84;77.30664;940.3318;;;;
2020/03/14 05:29:35;;;;;;;8.4;2.9;;;;;;;1.05;76.47461;940.2632;;;;
2020/03/14 05:32:00;;;;;;;17.9;3.5;;;;;;;1.16;75.96777;940.3998;;;;
2020/03/14 05:34:25;;;;;;;10.2;2.6;;;;;;;1.25;75.6582;940.3549;;;;
2020/03/14 05:36:50;;;;;;;5.8;2.5;;;;;;;1.25;75.71582;940.3354;;;;
2020/03/14 05:39:15;;;;;;;6.7;2.6;;;;;;;1.21;75.83203;940.3801;;;;
2020/03/14 05:41:40;;;;;;;7.8;2.3;;;;;;;1.16;76.23535;940.3543;;;;
2020/03/14 05:44:06;;;;;;;7.9;2.5;;;;;;;1.12;75.86035;940.2625;;;;
2020/03/14 05:46:31;;;;;;;6.5;2.5;;;;;;;1.11;76.13672;940.2822;;;;
2020/03/14 05:48:56;;;;;;;6.6;2.3;;;;;;;1.16;76.0127;940.3401;;;;
2020/03/14 05:51:21;;;;;;;8.3;2.6;;;;;;;1.15;76.26758;940.3375;;;;
2020/03/14 05:53:46;;;;;;;5.8;2.3;;;;;;;1.2;75.81934;940.3159;;;;
2020/03/14 05:56:11;;;;;;;7.4;3;;;;;;;1.29;75.37598;940.2855;;;;
2020/03/14 05:58:36;;;;;;;8.5;3.2;;;;;;;1.38;75.20215;940.3322;;;;
2020/03/14 06:01:02;;;;;;;8.1;3.1;;;;;;;1.21;75.8418;940.3596;;;;
2020/03/14 06:03:27;;;;;;;7.4;3.5;;;;;;;1.14;76.44434;940.3473;;;;
2020/03/14 06:05:52;;;;;;;10.7;4.3;;;;;;;1.2;76.46777;940.353;;;;
2020/03/14 06:08:17;;;;;;;8.4;4.5;;;;;;;1.26;76.46582;940.3287;;;;
2020/03/14 06:10:42;;;;;;;10.3;4.5;;;;;;;1.38;75.77148;940.3055;;;;
2020/03/14 06:13:07;;;;;;;8.7;3.9;;;;;;;1.32;75.4043;940.3176;;;;
2020/03/14 06:15:32;;;;;;;8.2;3.3;;;;;;;1.19;75.99512;940.3152;;;;
2020/03/14 06:17:57;;;;;;;13.9;4.1;;;;;;;1.38;75.80566;940.3447;;;;
2020/03/14 06:20:22;;;;;;;10.5;5.4;;;;;;;1.59;75.18457;940.2975;;;;
2020/03/14 06:22:48;;;;;;;13.4;5.9;;;;;;;1.72;74.3125;940.2966;;;;
2020/03/14 06:25:13;;;;;;;11.2;5.1;;;;;;;1.63;74.09473;940.2745;;;;
2020/03/14 06:27:38;;;;;;;12.1;6.5;;;;;;;1.87;73.64551;940.2527;;;;
2020/03/14 06:30:03;;;;;;;11.1;6.1;;;;;;;2.07;72.77344;940.2281;;;;
2020/03/14 06:32:28;;;;;;;21.1;7.7;;;;;;;2.27;71.93359;940.1437;;;;
2020/03/14 06:34:55;;;;;;;11.9;6.4;;;;;;;2.32;71.89648;940.2667;;;;
2020/03/14 06:37:18;;;;;;;12.6;6.2;;;;;;;2.38;71.79492;940.3393;;;;
2020/03/14 06:39:43;;;;;;;14.2;6.1;;;;;;;2.49;71.5332;940.3134;;;;
2020/03/14 06:42:09;;;;;;;7.1;3.9;;;;;;;2.59;71.57227;940.2997;;;;
2020/03/14 06:44:34;;;;;;;8.7;3.3;;;;;;;2.69;71.01758;940.2475;;;;
2020/03/14 06:46:59;;;;;;;8.9;3;;;;;;;2.52;70.95508;940.248;;;;
2020/03/14 06:49:25;;;;;;;9.3;3.1;;;;;;;2.58;71.60645;940.3254;;;;
2020/03/14 06:51:49;;;;;;;7.2;2.7;;;;;;;2.6;71.66406;940.4117;;;;
2020/03/14 06:54:15;;;;;;;9.9;2.9;;;;;;;2.56;70.94043;940.3804;;;;
2020/03/14 06:56:40;;;;;;;6.2;2.7;;;;;;;2.44;71.12207;940.3549;;;;
2020/03/14 06:59:05;;;;;;;10.7;3.3;;;;;;;2.3;71.77148;940.277;;;;
2020/03/14 07:01:30;;;;;;;8.2;2.9;;;;;;;2.38;71.50391;940.248;;;;
2020/03/14 07:03:56;;;;;;;7.7;3.3;;;;;;;2.57;71.7041;940.3878;;;;
2020/03/14 07:06:21;;;;;;;13.5;4.5;;;;;;;2.82;70.97168;940.4081;;;;
2020/03/14 07:08:46;;;;;;;15.2;5.5;;;;;;;2.99;70.27246;940.3995;;;;
2020/03/14 07:11:11;;;;;;;16.1;5;;;;;;;3.19;70.53125;940.3743;;;;
2020/03/14 07:13:36;;;;;;;9.2;5;;;;;;;3.48;70.06152;940.3691;;;;
2020/03/14 07:16:03;;;;;;;11.5;5.6;;;;;;;3.52;67.80957;940.3081;;;;
2020/03/14 07:18:28;;;;;;;9.5;3.9;;;;;;;3.73;67.28027;940.3369;;;;
2020/03/14 07:20:55;;;;;;;7.7;2.8;;;;;;;3.86;67.30176;940.2942;;;;
2020/03/14 07:23:20;;;;;;;8.8;2.5;;;;;;;3.98;66.92871;940.2878;;;;
2020/03/14 07:25:45;;;;;;;8.7;2.9;;;;;;;4.11;66.23926;940.1863;;;;
2020/03/14 07:28:10;;;;;;;6.1;2.5;;;;;;;4.37;65.64844;940.1486;;;;
2020/03/14 07:30:35;;;;;;;14.2;3.1;;;;;;;4.51;64.88281;940.2556;;;;
2020/03/14 07:33:03;;;;;;;7.3;2.8;;;;;;;4.72;63.95801;940.2287;;;;
2020/03/14 07:35:26;;;;;;;7.6;2.7;;;;;;;4.98;62.49707;940.24;;;;
2020/03/14 07:37:51;;;;;;;9.3;2.9;;;;;;;5.02;62.62793;940.2315;;;;
2020/03/14 07:40:16;;;;;;;15;3.3;;;;;;;5.13;62.45215;940.2088;;;;
2020/03/14 07:42:43;;;;;;;11.9;2.9;;;;;;;5.61;60.8291;940.2684;;;;
2020/03/14 07:45:08;;;;;;;11;4.3;;;;;;;6.54;58.13184;940.2481;;;;
2020/03/14 07:47:33;;;;;;;6.3;2.7;;;;;;;7.63;54.52637;940.242;;;;
2020/03/14 07:49:58;;;;;;;12.6;2.6;;;;;;;8.27;52.2002;940.2318;;;;
2020/03/14 07:52:23;;;;;;;9.1;2.8;;;;;;;9.58;47.40332;940.1214;;;;
2020/03/14 07:54:48;;;;;;;13.9;2.8;;;;;;;9.27;48.39355;940.1256;;;;
2020/03/14 07:57:13;;;;;;;9.1;2.7;;;;;;;9.44;48.18555;940.1295;;;;
2020/03/14 07:59:38;;;;;;;5.2;2.6;;;;;;;10.78;44.87402;940.0922;;;;
2020/03/14 08:02:04;;;;;;;8.6;2.7;;;;;;;11.13;43.92676;940.0694;;;;
2020/03/14 08:04:29;;;;;;;8;2.6;;;;;;;10.69;44.13281;940.0704;;;;
2020/03/14 08:06:54;;;;;;;8.2;1.8;;;;;;;11.05;43.58691;939.9619;;;;
2020/03/14 08:09:19;;;;;;;9.9;2.1;;;;;;;11.58;42.89648;940.0159;;;;
2020/03/14 08:11:44;;;;;;;7.6;1.8;;;;;;;10.95;41.69141;939.9597;;;;
2020/03/14 08:14:09;;;;;;;8.6;2.6;;;;;;;9.48;45.57031;939.9314;;;;
2020/03/14 08:16:35;;;;;;;7.1;1.8;;;;;;;10.21;43.59375;939.8665;;;;
2020/03/14 08:19:00;;;;;;;5.4;1.7;;;;;;;10.26;43.51953;939.8186;;;;
2020/03/14 08:21:28;;;;;;;5.5;1.9;;;;;;;11.26;41.51465;939.7458;;;;
2020/03/14 08:23:54;;;;;;;6.7;1.9;;;;;;;12.27;40.4082;939.769;;;;
2020/03/14 08:26:19;;;;;;;5.4;1.6;;;;;;;12.02;39.7666;939.7491;;;;
2020/03/14 08:28:44;;;;;;;4.8;1.5;;;;;;;11.79;40.70605;939.7628;;;;
2020/03/14 08:31:09;;;;;;;7.4;1.7;;;;;;;12.3;38.0957;939.7014;;;;
2020/03/14 08:33:34;;;;;;;5.4;1.6;;;;;;;13.29;37.00977;939.6702;;;;
2020/03/14 08:36:01;;;;;;;6.9;1.6;;;;;;;13.74;35.72559;939.6541;;;;
2020/03/14 08:38:26;;;;;;;6.9;1.8;;;;;;;12.43;38.10547;939.6703;;;;
2020/03/14 08:40:51;;;;;;;5.1;1.6;;;;;;;13.24;37.81055;939.6278;;;;
2020/03/14 08:43:16;;;;;;;6.1;1.8;;;;;;;12.21;37.66309;939.6072;;;;
2020/03/14 08:45:44;;;;;;;8.2;1.9;;;;;;;12;39.6377;939.6288;;;;
2020/03/14 08:48:07;;;;;;;8.6;2.4;;;;;;;12.22;39.09668;939.5644;;;;
2020/03/14 08:50:32;;;;;;;17.9;3.2;;;;;;;13.07;37.42773;939.5062;;;;
2020/03/14 08:52:57;;;;;;;14.9;2.5;;;;;;;14;35.21777;939.5164;;;;
2020/03/14 08:55:23;;;;;;;14.2;2.9;;;;;;;15.43;32.61914;939.5457;;;;
2020/03/14 08:57:48;;;;;;;7.6;2;;;;;;;15.21;32.30273;939.5528;;;;
2020/03/14 09:00:13;;;;;;;7.9;1.7;;;;;;;16.38;32.12402;939.454;;;;
2020/03/14 09:02:38;;;;;;;4.6;1.8;;;;;;;17.17;31.12598;939.502;;;;
2020/03/14 09:05:03;;;;;;;3.9;1.3;;;;;;;18.08;28.50684;939.5008;;;;
2020/03/14 09:07:28;;;;;;;4;1.4;;;;;;;18.39;28.08594;939.4794;;;;
2020/03/14 09:09:53;;;;;;;4.5;1.6;;;;;;;18.33;29.10449;939.47;;;;
2020/03/14 09:12:18;;;;;;;4.4;1.6;;;;;;;19.63;26.21777;939.3953;;;;
2020/03/14 09:14:43;;;;;;;5.7;1.5;;;;;;;19.24;27.52246;939.4187;;;;
2020/03/14 09:17:09;;;;;;;5;1.7;;;;;;;18.75;26.80469;939.462;;;;
2020/03/14 09:19:34;;;;;;;5.3;1.6;;;;;;;18.42;28.19238;939.4225;;;;
2020/03/14 09:21:59;;;;;;;5.4;1.8;;;;;;;18.93;26.33984;939.4191;;;;
2020/03/14 09:24:24;;;;;;;5.1;1.8;;;;;;;18.82;27.60156;939.4738;;;;
2020/03/14 09:26:49;;;;;;;4.9;1.8;;;;;;;19.83;25.04004;939.4311;;;;
2020/03/14 09:29:14;;;;;;;4.1;1.7;;;;;;;20.18;25.8418;939.3928;;;;
2020/03/14 09:31:39;;;;;;;6.6;1.7;;;;;;;20.58;25.03613;939.4517;;;;
2020/03/14 09:34:04;;;;;;;5.1;1.7;;;;;;;20.57;24.77832;939.4222;;;;
2020/03/14 09:36:30;;;;;;;6.5;2;;;;;;;19.49;26.99023;939.4456;;;;
2020/03/14 09:38:55;;;;;;;4.9;1.8;;;;;;;19.34;26.29395;939.4592;;;;
2020/03/14 09:41:20;;;;;;;6.2;2;;;;;;;19.91;25.42969;939.4324;;;;
2020/03/14 09:43:45;;;;;;;5.1;2;;;;;;;20.3;25.5332;939.4135;;;;
2020/03/14 09:46:10;;;;;;;6;2.1;;;;;;;19.98;29.15527;939.4275;;;;
2020/03/14 09:48:35;;;;;;;5.8;2;;;;;;;19.89;27.72656;939.4781;;;;
2020/03/14 09:51:00;;;;;;;5.5;2.1;;;;;;;19.29;28.86523;939.4185;;;;
2020/03/14 09:53:25;;;;;;;4.5;1.9;;;;;;;19.33;27.81934;939.4731;;;;
2020/03/14 09:55:50;;;;;;;6.3;1.9;;;;;;;18.69;29.20996;939.4615;;;;
2020/03/14 09:58:15;;;;;;;7.3;2.2;;;;;;;17.94;29.70605;939.4214;;;;
2020/03/14 10:00:41;;;;;;;5.8;2;;;;;;;17.44;30.97168;939.4029;;;;
2020/03/14 10:03:06;;;;;;;5.9;2.1;;;;;;;16.83;32.40039;939.4322;;;;
2020/03/14 10:05:31;;;;;;;6.9;2.2;;;;;;;15.5;34.04492;939.411;;;;
2020/03/14 10:07:56;;;;;;;6.8;2.8;;;;;;;15.05;34.97949;939.4158;;;;
2020/03/14 10:10:21;;;;;;;7.5;3.5;;;;;;;14.27;37.99121;939.4299;;;;
2020/03/14 10:12:46;;;;;;;7.5;3.3;;;;;;;13.92;39.36523;939.4246;;;;
2020/03/14 10:15:11;;;;;;;6.6;3;;;;;;;14.43;37.87891;939.4818;;;;
2020/03/14 10:17:37;;;;;;;7.5;2.8;;;;;;;14.63;38.08105;939.4416;;;;
2020/03/14 10:20:02;;;;;;;5.5;2.2;;;;;;;14.3;38.21289;939.4595;;;;
2020/03/14 10:22:27;;;;;;;5.4;2.2;;;;;;;15.04;36.69727;939.4144;;;;
2020/03/14 10:24:52;;;;;;;6.9;2.2;;;;;;;14.37;39.14063;939.4272;;;;
2020/03/14 10:27:17;;;;;;;7;2.3;;;;;;;14.7;38.19043;939.4476;;;;
2020/03/14 10:29:42;;;;;;;6.4;2.5;;;;;;;15.4;36.48535;939.4724;;;;
2020/03/14 10:32:08;;;;;;;6.6;2.4;;;;;;;15.2;38.16504;939.3828;;;;
2020/03/14 10:34:33;;;;;;;7;2.7;;;;;;;14.03;40.13379;939.3365;;;;
2020/03/14 10:36:58;;;;;;;7.1;3;;;;;;;13.29;41.39941;939.3391;;;;
2020/03/14 10:39:25;;;;;;;7.9;3.5;;;;;;;13.81;39.53809;939.3636;;;;
2020/03/14 10:41:50;;;;;;;6.3;3.4;;;;;;;13.6;41.47461;939.2427;;;;
2020/03/14 10:44:16;;;;;;;7.5;3.2;;;;;;;13.16;43.0293;939.392;;;;
2020/03/14 10:46:42;;;;;;;7.9;3.6;;;;;;;13.58;41.19727;939.385;;;;
2020/03/14 10:49:07;;;;;;;8;3;;;;;;;13.46;41.49609;939.3651;;;;
2020/03/14 10:51:32;;;;;;;8.6;3.1;;;;;;;13.77;41.35254;939.3076;;;;
2020/03/14 10:53:57;;;;;;;9.9;3.1;;;;;;;13.64;42.42188;939.3397;;;;
2020/03/14 10:56:22;;;;;;;8.8;3.5;;;;;;;14.14;40.0293;939.2442;;;;
2020/03/14 10:58:47;;;;;;;8.1;2.8;;;;;;;13.72;40.55469;939.326;;;;
2020/03/14 11:01:12;;;;;;;7;2.9;;;;;;;14.24;39.75098;939.3859;;;;
2020/03/14 11:03:37;;;;;;;7.9;2.8;;;;;;;14.54;39.82422;939.3206;;;;
2020/03/14 11:06:04;;;;;;;7.2;2.9;;;;;;;14.03;39.61621;939.2341;;;;
2020/03/14 11:08:29;;;;;;;9.3;3.3;;;;;;;13.95;40.88672;939.2988;;;;
2020/03/14 11:10:54;;;;;;;9.2;3.2;;;;;;;14.1;40.01465;939.2811;;;;
2020/03/14 11:13:20;;;;;;;9.2;3.1;;;;;;;13.84;39.51953;939.3117;;;;
2020/03/14 11:15:45;;;;;;;8;2.8;;;;;;;13.69;40.73633;939.2541;;;;
2020/03/14 11:18:10;;;;;;;8.3;3;;;;;;;13.12;41.625;939.368;;;;
2020/03/14 11:20:35;;;;;;;7.5;2.9;;;;;;;13.11;40.94531;939.3983;;;;
2020/03/14 11:23:00;;;;;;;8.9;2.8;;;;;;;12.98;43.27637;939.5176;;;;
2020/03/14 11:25:25;;;;;;;12.2;3.2;;;;;;;13.57;41.16113;939.5347;;;;
2020/03/14 11:27:51;;;;;;;5.7;2.7;;;;;;;14.64;39.68359;939.5737;;;;
2020/03/14 11:30:16;;;;;;;7.4;3;;;;;;;15.25;37.08398;939.6011;;;;
2020/03/14 11:32:41;;;;;;;9.2;3;;;;;;;14.75;37.71094;939.5613;;;;
2020/03/14 11:35:06;;;;;;;9.2;3.2;;;;;;;13.33;41.02441;939.5759;;;;
2020/03/14 11:37:31;;;;;;;8;3.2;;;;;;;12.85;42.32227;939.5725;;;;
2020/03/14 11:39:56;;;;;;;8.7;3.2;;;;;;;12.77;43.24414;939.5464;;;;
2020/03/14 11:42:22;;;;;;;7.4;3.1;;;;;;;12.16;43.57227;939.5878;;;;
2020/03/14 11:44:48;;;;;;;7.9;3.3;;;;;;;11.59;44.98047;939.6252;;;;
2020/03/14 11:47:13;;;;;;;9.2;3.5;;;;;;;11.71;44.51172;939.5952;;;;
2020/03/14 11:49:38;;;;;;;10.1;3.8;;;;;;;11.52;45.16699;939.56;;;;
2020/03/14 11:52:03;;;;;;;10.2;3.9;;;;;;;11.43;44.96387;939.533;;;;
2020/03/14 11:54:28;;;;;;;10.8;4;;;;;;;11.17;46.25098;939.3892;;;;
2020/03/14 11:56:53;;;;;;;11.6;4.1;;;;;;;11;46.45117;939.5244;;;;
2020/03/14 11:59:18;;;;;;;8.8;4;;;;;;;11.06;45.58887;939.5341;;;;
2020/03/14 12:01:43;;;;;;;10;3.8;;;;;;;11.33;45.18066;939.4275;;;;
2020/03/14 12:04:09;;;;;;;8.8;3.8;;;;;;;10.97;46.7334;939.5066;;;;
2020/03/14 12:06:34;;;;;;;7.9;3.6;;;;;;;10.65;46.54004;939.5062;;;;
2020/03/14 12:08:59;;;;;;;8.1;4.2;;;;;;;10.73;46.29785;939.4744;;;;
2020/03/14 12:11:24;;;;;;;10.7;3.4;;;;;;;10.7;47.29883;939.4565;;;;
2020/03/14 12:13:49;;;;;;;9.4;3.5;;;;;;;10.77;47.56934;939.5751;;;;
2020/03/14 12:16:14;;;;;;;10.3;3.7;;;;;;;10.95;45.91992;939.563;;;;
2020/03/14 12:18:39;;;;;;;7.9;3.5;;;;;;;10.71;47.31152;939.5458;;;;
2020/03/14 12:21:05;;;;;;;6.5;3.1;;;;;;;10.53;47.24512;939.5371;;;;
2020/03/14 12:23:30;;;;;;;8.8;3.6;;;;;;;10.71;46.92285;939.498;;;;
2020/03/14 12:25:55;;;;;;;7.6;3.4;;;;;;;10.55;46.93945;939.5247;;;;
2020/03/14 12:28:20;;;;;;;9.4;3.2;;;;;;;9.94;49.5293;939.5842;;;;
2020/03/14 12:30:45;;;;;;;10.3;3.1;;;;;;;9.57;50.4209;939.5298;;;;
2020/03/14 12:33:11;;;;;;;10;3.1;;;;;;;9.55;51.27344;939.4985;;;;
2020/03/14 12:35:36;;;;;;;12.1;4.1;;;;;;;9.71;50.36914;939.6014;;;;
2020/03/14 12:38:03;;;;;;;11.3;3.5;;;;;;;9.48;49.875;939.6827;;;;
2020/03/14 12:40:28;;;;;;;11.4;3.9;;;;;;;9.66;49.74902;939.6619;;;;
2020/03/14 12:42:53;;;;;;;8.8;3.5;;;;;;;9.72;49.66406;939.7106;;;;
2020/03/14 12:45:18;;;;;;;10.1;3.3;;;;;;;9.73;49.99512;939.7495;;;;
2020/03/14 12:47:43;;;;;;;10.3;3.7;;;;;;;9.71;49.66211;939.6777;;;;
2020/03/14 12:50:09;;;;;;;8.6;3.6;;;;;;;9.84;48.38965;939.7952;;;;
2020/03/14 12:52:34;;;;;;;11;3.6;;;;;;;9.82;48.77539;939.7186;;;;
2020/03/14 12:54:59;;;;;;;10.7;3.5;;;;;;;9.77;49.16797;939.736;;;;
2020/03/14 12:57:24;;;;;;;9.6;3.6;;;;;;;9.82;49.53906;939.8164;;;;
2020/03/14 12:59:49;;;;;;;9.8;3.4;;;;;;;9.91;48.75098;939.7597;;;;
2020/03/14 13:02:14;;;;;;;12.1;3.4;;;;;;;9.68;50.21777;939.7823;;;;
2020/03/14 13:04:39;;;;;;;11;3.2;;;;;;;9.58;49.89941;939.8306;;;;
2020/03/14 13:07:05;;;;;;;9.6;3;;;;;;;9.49;50.30859;939.7369;;;;
2020/03/14 13:09:29;;;;;;;8.9;2.8;;;;;;;9.36;51.6377;939.7791;;;;
2020/03/14 13:11:55;;;;;;;11.9;3;;;;;;;9.31;51.41602;939.8052;;;;
2020/03/14 13:14:20;;;;;;;9.9;3;;;;;;;9.04;50.29199;939.8386;;;;
2020/03/14 13:16:45;;;;;;;9.1;2.9;;;;;;;9.1;50.19629;939.8333;;;;
2020/03/14 13:19:11;;;;;;;8.2;3.1;;;;;;;9.22;49.85742;939.8165;;;;
2020/03/14 13:21:36;;;;;;;9.7;2.9;;;;;;;9.29;50.77637;939.712;;;;
2020/03/14 13:24:01;;;;;;;10.3;3.3;;;;;;;9.35;51.26074;939.7957;;;;
2020/03/14 13:26:26;;;;;;;7.6;2.7;;;;;;;9.27;50.10156;939.7983;;;;
2020/03/14 13:28:51;;;;;;;10.2;3;;;;;;;9.23;49.11816;939.8071;;;;
2020/03/14 13:31:16;;;;;;;10.2;3;;;;;;;9.22;50.34668;939.8109;;;;
2020/03/14 13:33:41;;;;;;;9.1;3.1;;;;;;;9.34;50.00781;939.8844;;;;
2020/03/14 13:36:07;;;;;;;9.1;2.9;;;;;;;9.24;50.62109;939.9622;;;;
2020/03/14 13:38:33;;;;;;;11.2;3;;;;;;;9.43;49.69922;939.9196;;;;
2020/03/14 13:40:57;;;;;;;7.7;3.1;;;;;;;9.55;48.91602;939.9549;;;;
2020/03/14 13:43:23;;;;;;;9.8;3.3;;;;;;;9.6;49.14941;939.9557;;;;
2020/03/14 13:45:48;;;;;;;9.3;3.3;;;;;;;9.71;48.04395;939.9496;;;;
2020/03/14 13:48:13;;;;;;;9.5;3.3;;;;;;;9.84;47.87793;939.967;;;;
2020/03/14 13:50:39;;;;;;;11.2;3.1;;;;;;;9.93;48.19434;940.0334;;;;
2020/03/14 13:53:04;;;;;;;9.7;3.3;;;;;;;9.98;48.13086;939.9403;;;;
2020/03/14 13:55:29;;;;;;;8.1;3;;;;;;;9.83;48.17188;939.966;;;;
2020/03/14 13:57:55;;;;;;;10.6;3.2;;;;;;;9.88;47.27734;939.9175;;;;
2020/03/14 14:00:20;;;;;;;9.3;3;;;;;;;10.05;46.88477;939.9576;;;;
2020/03/14 14:02:45;;;;;;;11.9;3;;;;;;;10.32;46.24023;939.9578;;;;
2020/03/14 14:05:10;;;;;;;10.4;3.2;;;;;;;10.59;44.625;939.9893;;;;
2020/03/14 14:07:35;;;;;;;9.3;3.6;;;;;;;10.03;48.10254;939.9501;;;;
2020/03/14 14:10:01;;;;;;;8.4;3.2;;;;;;;8.78;54.38867;940.0206;;;;
2020/03/14 14:12:26;;;;;;;10;3.3;;;;;;;8.73;55.51855;940.0363;;;;
2020/03/14 14:14:51;;;;;;;9.9;3.5;;;;;;;8.6;56.38965;939.9659;;;;
2020/03/14 14:17:16;;;;;;;9.6;3.6;;;;;;;8.28;57.00586;940.0884;;;;
2020/03/14 14:19:41;;;;;;;8.7;3.5;;;;;;;8.54;56.93945;940.1023;;;;
2020/03/14 14:22:07;;;;;;;13.5;6.1;;;;;;;8.27;58.09473;940.0635;;;;